createdAt,value
2019-02-20T00:00:45.904Z,10.60
2019-02-20T00:05:49.616Z,10.30
2019-02-20T00:10:53.314Z,10.67
2019-02-20T00:15:57.444Z,10.37
2019-02-20T00:21:01.129Z,10.60
2019-02-20T00:26:04.917Z,9.47
2019-02-20T00:31:08.667Z,10.13
2019-02-20T00:36:12.714Z,10.10
2019-02-20T00:41:16.459Z,10.37
2019-02-20T00:46:30.114Z,11.47
2019-02-20T00:51:40.287Z,11.17
2019-02-20T00:56:44.238Z,11.33
2019-02-20T01:01:48.233Z,10.13
2019-02-20T01:06:51.955Z,10.53
2019-02-20T01:11:55.882Z,10.80
2019-02-20T01:16:59.568Z,12.40
2019-02-20T01:22:03.358Z,11.60
2019-02-20T01:27:07.042Z,11.53
2019-02-20T01:32:10.740Z,11.13
2019-02-20T01:37:14.434Z,11.27
2019-02-20T01:42:18.925Z,12.23
2019-02-20T01:47:22.687Z,10.80
2019-02-20T01:52:26.437Z,12.03
2019-02-20T01:57:30.241Z,11.57
2019-02-20T02:02:33.935Z,11.60
2019-02-20T02:07:38.064Z,12.70
2019-02-20T02:12:41.774Z,12.97
2019-02-20T02:17:45.871Z,12.57
2019-02-20T02:22:49.632Z,12.97
2019-02-20T02:27:53.317Z,12.87
2019-02-20T02:32:57.450Z,12.90
2019-02-20T02:38:01.216Z,13.07
2019-02-20T02:43:05.337Z,12.87
2019-02-20T02:48:09.115Z,12.47
2019-02-20T02:53:12.814Z,12.50
2019-02-20T02:58:16.861Z,12.47
2019-02-20T03:03:20.564Z,13.43
2019-02-20T03:08:24.609Z,13.70
2019-02-20T03:13:28.715Z,12.60
2019-02-20T03:18:32.445Z,13.20
2019-02-20T03:23:40.285Z,13.60
2019-02-20T03:28:41.932Z,13.03
2019-02-20T03:33:45.691Z,13.63
2019-02-20T03:38:49.974Z,13.30
2019-02-20T03:43:53.704Z,13.37
2019-02-20T03:48:57.446Z,13.00
2019-02-20T03:54:01.246Z,12.90
2019-02-20T03:59:04.954Z,12.70
2019-02-20T04:04:08.645Z,13.33
2019-02-20T04:09:12.315Z,13.30
2019-02-20T04:14:16.278Z,13.53
2019-02-20T04:19:20.058Z,13.13
2019-02-20T04:24:24.099Z,13.57
2019-02-20T04:29:28.061Z,12.80
2019-02-20T04:34:32.064Z,13.17
2019-02-20T04:39:36.119Z,13.30
2019-02-20T04:44:40.124Z,12.80
2019-02-20T04:49:43.824Z,13.63
2019-02-20T04:54:47.692Z,13.33
2019-02-20T04:59:51.742Z,12.30
2019-02-20T05:04:55.488Z,12.40
2019-02-20T05:09:59.495Z,13.53
2019-02-20T05:15:03.252Z,13.83
2019-02-20T05:20:07.386Z,14.87
2019-02-20T05:25:11.115Z,12.57
2019-02-20T05:30:14.900Z,13.73
2019-02-20T05:35:18.581Z,13.57
2019-02-20T05:40:22.535Z,13.33
2019-02-20T05:45:26.234Z,13.37
2019-02-20T05:50:30.187Z,13.40
2019-02-20T05:55:33.881Z,13.33
2019-02-20T06:00:37.630Z,13.67
2019-02-20T06:05:41.355Z,13.77
2019-02-20T06:10:45.128Z,13.60
2019-02-20T06:15:48.822Z,13.53
2019-02-20T06:20:52.507Z,13.50
2019-02-20T06:25:56.344Z,13.60
2019-02-20T06:31:00.028Z,13.53
2019-02-20T06:36:03.924Z,13.47
2019-02-20T06:41:07.621Z,13.73
2019-02-20T06:46:11.303Z,13.77
2019-02-20T06:51:15.024Z,13.50
2019-02-20T06:56:18.690Z,12.47
2019-02-20T07:01:22.382Z,13.90
2019-02-20T07:06:46.408Z,11.97
2019-02-20T07:12:13.233Z,12.90
2019-02-20T07:17:35.717Z,11.70
2019-02-20T07:23:06.070Z,12.30
2019-02-20T07:28:52.632Z,12.57
2019-02-20T07:33:56.300Z,11.83
2019-02-20T07:39:00.016Z,12.23
2019-02-20T07:44:03.765Z,12.30
2019-02-20T07:49:07.450Z,11.80
2019-02-20T07:54:11.177Z,12.33
2019-02-20T07:59:15.150Z,11.77
2019-02-20T08:04:18.819Z,11.40
2019-02-20T08:09:22.806Z,13.17
2019-02-20T08:14:26.492Z,11.43
2019-02-20T08:19:30.196Z,11.07
2019-02-20T08:24:33.899Z,11.80
2019-02-20T08:29:37.633Z,10.93
2019-02-20T08:34:41.361Z,11.30
2019-02-20T08:39:45.064Z,12.80
2019-02-20T08:44:48.828Z,11.03
2019-02-20T08:49:54.362Z,11.53
2019-02-20T08:54:58.036Z,11.40
2019-02-20T09:00:02.085Z,11.70
2019-02-20T09:05:06.741Z,11.77
2019-02-20T09:10:11.043Z,12.13
2019-02-20T09:15:14.826Z,11.00
2019-02-20T09:20:19.135Z,10.40
2019-02-20T09:25:23.260Z,10.70
2019-02-20T09:30:28.852Z,10.60
2019-02-20T09:35:32.894Z,10.77
2019-02-20T09:40:36.826Z,11.33
2019-02-20T09:45:42.905Z,11.63
2019-02-20T09:50:47.733Z,11.00
2019-02-20T09:55:52.057Z,12.13
2019-02-20T10:00:56.217Z,11.90
2019-02-20T10:05:59.917Z,12.20
2019-02-20T10:11:03.649Z,12.10
2019-02-20T10:16:07.656Z,11.20
2019-02-20T10:21:11.398Z,11.53
2019-02-20T10:26:15.117Z,12.03
2019-02-20T10:31:18.841Z,10.73
2019-02-20T10:36:22.560Z,11.93
2019-02-20T10:41:26.380Z,11.47
2019-02-20T10:46:30.114Z,12.43
2019-02-20T10:51:33.956Z,11.17
2019-02-20T10:56:37.807Z,11.43
2019-02-20T11:01:41.795Z,11.97
2019-02-20T11:06:45.581Z,10.58
2019-02-20T11:11:49.335Z,10.30
2019-02-20T11:16:53.097Z,10.80
2019-02-20T11:21:56.822Z,9.98
2019-02-20T11:27:00.587Z,10.83
2019-02-20T11:32:04.320Z,9.43
2019-02-20T11:37:08.054Z,9.77
2019-02-20T11:42:11.775Z,10.00
2019-02-20T11:47:15.594Z,9.47
2019-02-20T11:52:19.302Z,8.80
2019-02-20T11:57:23.324Z,8.10
2019-02-20T12:02:27.140Z,8.50
2019-02-20T12:07:31.501Z,7.87
2019-02-20T12:12:35.611Z,8.50
2019-02-20T12:17:39.363Z,7.70
2019-02-20T12:22:43.077Z,7.30
2019-02-20T12:27:47.155Z,5.90
2019-02-20T12:32:51.297Z,6.40
2019-02-20T12:37:55.088Z,6.07
2019-02-20T12:42:59.293Z,5.93
2019-02-20T12:48:03.061Z,5.50
2019-02-20T12:53:06.833Z,5.80
2019-02-20T12:58:10.639Z,4.47
2019-02-20T13:03:14.402Z,4.50
2019-02-20T13:08:18.260Z,4.60
2019-02-20T13:13:22.275Z,4.00
2019-02-20T13:18:26.388Z,4.80
2019-02-20T13:23:30.182Z,4.53
2019-02-20T13:28:33.979Z,4.00
2019-02-20T13:33:38.253Z,4.00
2019-02-20T13:38:41.959Z,3.93
2019-02-20T13:43:46.248Z,3.80
2019-02-20T13:48:50.276Z,3.90
2019-02-20T13:53:54.060Z,5.10
2019-02-20T13:58:57.867Z,4.57
2019-02-20T14:04:01.583Z,4.50
2019-02-20T14:09:06.605Z,4.33
2019-02-20T14:14:10.757Z,4.70
2019-02-20T14:19:14.579Z,4.17
2019-02-20T14:24:18.351Z,4.53
2019-02-20T14:29:22.107Z,5.90
2019-02-20T14:34:26.779Z,4.63
2019-02-20T14:39:30.570Z,5.27
2019-02-20T14:44:34.611Z,5.50
2019-02-20T14:49:38.310Z,5.47
2019-02-20T14:54:42.689Z,5.10
2019-02-20T14:59:46.776Z,5.67
2019-02-20T15:04:50.611Z,5.53
2019-02-20T15:09:54.433Z,4.87
2019-02-20T15:14:58.195Z,5.10
2019-02-20T15:20:02.028Z,5.03
2019-02-20T15:25:05.962Z,5.37
2019-02-20T15:30:12.430Z,5.00
2019-02-20T15:35:17.748Z,4.73
2019-02-20T15:40:21.470Z,4.80
2019-02-20T15:45:25.833Z,4.80
2019-02-20T15:50:30.539Z,4.80
2019-02-20T15:55:34.300Z,4.57
2019-02-20T16:00:38.015Z,4.47
2019-02-20T16:05:44.138Z,4.40
2019-02-20T16:10:47.891Z,4.73
2019-02-20T16:15:52.599Z,4.77
2019-02-20T16:20:56.573Z,5.40
2019-02-20T16:26:02.203Z,4.27
2019-02-20T16:31:08.197Z,5.00
2019-02-20T16:36:14.688Z,5.50
2019-02-20T16:41:19.125Z,4.73
2019-02-20T16:46:22.819Z,5.37
2019-02-20T16:51:26.584Z,6.00
2019-02-20T16:56:34.546Z,5.50
2019-02-20T17:01:38.350Z,5.83
2019-02-20T17:06:42.670Z,5.13
2019-02-20T17:11:46.459Z,4.60
2019-02-20T17:16:50.512Z,5.17
2019-02-20T17:21:54.221Z,5.13
2019-02-20T17:26:57.983Z,5.10
2019-02-20T17:32:01.919Z,5.27
2019-02-20T17:37:05.666Z,5.40
2019-02-20T17:42:09.659Z,5.63
2019-02-20T17:47:13.589Z,5.97
2019-02-20T17:52:17.645Z,6.07
2019-02-20T17:57:21.644Z,6.77
2019-02-20T18:02:26.258Z,5.97
2019-02-20T18:07:29.953Z,6.63
2019-02-20T18:12:33.637Z,6.63
2019-02-20T18:17:37.653Z,6.97
2019-02-20T18:22:43.613Z,6.13
2019-02-20T18:27:47.041Z,6.60
2019-02-20T18:32:51.580Z,7.63
2019-02-20T18:37:55.414Z,6.87
2019-02-20T18:42:59.547Z,8.00
2019-02-20T18:48:03.309Z,7.73
2019-02-20T18:53:07.129Z,9.67
2019-02-20T18:58:10.829Z,10.60
2019-02-20T19:03:14.520Z,10.20
2019-02-20T19:08:50.871Z,10.87
2019-02-20T19:14:02.732Z,12.77
2019-02-20T19:19:48.337Z,12.37
2019-02-20T19:25:46.056Z,12.17
2019-02-20T19:31:46.692Z,13.60
2019-02-20T19:37:23.832Z,12.17
2019-02-20T19:42:39.407Z,13.67
2019-02-20T19:48:16.047Z,13.33
2019-02-20T19:53:49.279Z,13.50
2019-02-20T19:59:29.675Z,12.37
2019-02-20T20:05:16.519Z,13.73
2019-02-20T20:10:41.756Z,13.40
2019-02-20T20:16:17.590Z,12.13
2019-02-20T20:21:50.134Z,12.80
2019-02-20T20:27:20.011Z,20.13
2019-02-20T20:32:52.627Z,11.50
2019-02-20T20:38:31.928Z,11.50
2019-02-20T20:44:10.871Z,11.17
2019-02-20T20:49:34.548Z,11.10
2019-02-20T20:55:26.800Z,13.77
2019-02-20T21:01:04.794Z,12.00
2019-02-20T21:06:34.257Z,11.13
2019-02-20T21:11:55.152Z,11.77
2019-02-20T21:17:40.189Z,11.10
2019-02-20T21:23:25.705Z,12.07
2019-02-20T21:28:48.796Z,13.57
2019-02-20T21:34:24.510Z,11.83
2019-02-20T21:39:46.613Z,11.67
2019-02-20T21:45:09.588Z,12.23
2019-02-20T21:50:40.880Z,11.93
2019-02-20T21:56:18.213Z,11.93
2019-02-20T22:01:34.912Z,11.77
2019-02-20T22:06:58.705Z,11.60
2019-02-20T22:12:36.688Z,14.03
2019-02-20T22:18:13.810Z,12.43
2019-02-20T22:23:54.936Z,12.17
2019-02-20T22:29:27.039Z,11.97
2019-02-20T22:34:55.804Z,12.57
2019-02-20T22:40:23.165Z,11.80
2019-02-20T22:45:35.536Z,12.27
2019-02-20T22:50:57.910Z,12.37
2019-02-20T22:56:30.799Z,12.07
2019-02-20T23:02:28.886Z,13.00
2019-02-20T23:07:58.587Z,13.27
2019-02-20T23:13:42.227Z,12.77
2019-02-20T23:18:45.941Z,11.43
2019-02-20T23:23:49.925Z,11.70
2019-02-20T23:28:53.644Z,12.30
2019-02-20T23:33:57.710Z,11.97
2019-02-20T23:39:01.455Z,12.43
2019-02-20T23:44:05.168Z,11.63
2019-02-20T23:49:08.879Z,17.07
2019-02-20T23:54:12.771Z,11.50
2019-02-20T23:59:17.348Z,12.20
